Meamina — 2AMK7 — position and weather

sailwx.info

Track history (hours):
 
Tides and Currents Weather Stations Pressure Air Temp Water Temp Dewpoint Dewpoint Depression Visibility Wind Speed Wind Dir Waves Ship Positions

Meamina

Last reported at 2014-Jul-28 12:33 UTC. Time now 2014-Jul-29 08:45 UTC.
Position N 40°46' E 013°50'.

Length 60 m; draft 3.5 m.

MMSI: 235061022.

Date/timePositionNaut miles runAvg speedWind from/ knotsBaromVisibWave heightAir tempDewpointWater temp
2014-Jul-28 12:33N 40°46' E 013°50'3 2.5
2014-Jul-28 11:32N 40°45' E 013°53'0 0.0
2014-Jul-28 10:29N 40°45' E 013°53'0 0.0
2014-Jul-28 09:32N 40°45' E 013°53'0 0.0
2014-Jul-28 08:28N 40°45' E 013°53'0 0.0
2014-Jul-28 07:32N 40°45' E 013°53'0 0.0
2014-Jul-28 06:29N 40°45' E 013°53'0 0.0
2014-Jul-28 05:32N 40°45' E 013°53'0 0.0
2014-Jul-28 04:32N 40°45' E 013°53'0 0.0
2014-Jul-28 03:32N 40°45' E 013°53'0 0.0
2014-Jul-28 02:32N 40°45' E 013°53'0 0.0
2014-Jul-28 01:32N 40°45' E 013°53'0 0.0
2014-Jul-28 00:32N 40°45' E 013°53'0 0.0
2014-Jul-27 23:32N 40°45' E 013°53'0 0.0
2014-Jul-27 22:32N 40°45' E 013°53'0 0.0
2014-Jul-27 21:32N 40°45' E 013°53'0 0.0
2014-Jul-27 20:29N 40°45' E 013°53'0 0.0
2014-Jul-27 19:33N 40°45' E 013°53'0 0.0
2014-Jul-27 18:33N 40°45' E 013°53'0 0.0
2014-Jul-27 17:33N 40°45' E 013°53'2 1.7
2014-Jul-27 16:33N 40°45' E 013°56'1110.5
2014-Jul-27 15:33N 40°39' E 014°07'7 7.4
2014-Jul-27 14:33N 40°34' E 014°14'0 0.0
2014-Jul-27 13:33N 40°34' E 014°14'0 0.0
2014-Jul-27 12:33N 40°34' E 014°14'0 0.0
2014-Jul-27 11:33N 40°34' E 014°14'0 0.0
2014-Jul-27 10:33N 40°34' E 014°14'0 0.0
2014-Jul-27 09:33N 40°34' E 014°14'0 0.0
2014-Jul-27 08:33N 40°34' E 014°14'0 0.0
2014-Jul-27 07:33N 40°34' E 014°14'0 0.0
2014-Jul-27 06:33N 40°34' E 014°14'0 0.0
2014-Jul-27 05:33N 40°34' E 014°13'0 0.1
2014-Jul-27 04:33N 40°34' E 014°14'0 0.0
2014-Jul-27 03:33N 40°34' E 014°14'2 0.9
2014-Jul-27 01:30N 40°32' E 014°15'0 0.0
2014-Jul-26 17:09N 40°32' E 014°15'0 0.0
2014-Jul-26 16:20N 40°32' E 014°15'0 0.0
2014-Jul-26 15:31N 40°32' E 014°15'0 0.0
2014-Jul-26 14:27N 40°32' E 014°15'0 0.0
2014-Jul-26 13:33N 40°32' E 014°15'0 0.0
2014-Jul-26 12:33N 40°32' E 014°15'11 0.5
2014-Jul-25 14:28N 40°37' E 014°28'8 9.2
2014-Jul-25 13:33N 40°37' E 014°17'1212.5
2014-Jul-25 12:33N 40°50' E 014°14'  
2014-Jul-23 05:34N 40°46' E 014°10'1312.9
2014-Jul-23 04:34N 40°47' E 013°53'1514.3
2014-Jul-23 03:33N 40°54' E 013°36'16813.6
2014-Jul-22 15:13N 42°41' E 010°43'914.0
2014-Jul-22 14:33N 42°48' E 010°35'4611.5
2014-Jul-22 10:33N 43°32' E 010°16'1 1.4
2014-Jul-22 09:33N 43°32' E 010°18'0 0.0
2014-Jul-22 08:32N 43°32' E 010°18'0 0.0
2014-Jul-22 07:32N 43°32' E 010°18'0 0.0
2014-Jul-22 06:29N 43°32' E 010°18'0 0.0
2014-Jul-22 05:23N 43°33' E 010°18'0 0.0
2014-Jul-22 04:32N 43°32' E 010°18'0 0.0
2014-Jul-22 03:32N 43°33' E 010°18'0 0.0
2014-Jul-22 02:32N 43°33' E 010°18'0 0.0
2014-Jul-22 01:32N 43°33' E 010°18'0 0.0
2014-Jul-22 00:29N 43°33' E 010°18'0 0.0
2014-Jul-21 23:32N 43°32' E 010°18'0 0.0
2014-Jul-21 22:32N 43°32' E 010°18'0 0.0
2014-Jul-21 21:32N 43°33' E 010°18'0 0.0
2014-Jul-21 20:32N 43°33' E 010°18'0 0.0
2014-Jul-21 20:17N 43°33' E 010°18'0 0.0
2014-Jul-21 19:29N 43°33' E 010°18'0 0.0
2014-Jul-21 18:32N 43°33' E 010°18'0 0.0
2014-Jul-21 17:32N 43°32' E 010°18'0 0.0
2014-Jul-21 16:32N 43°32' E 010°18'0 0.0
2014-Jul-21 15:32N 43°33' E 010°18'0 0.0
2014-Jul-21 14:29N 43°33' E 010°18'0 0.0
2014-Jul-21 13:29N 43°33' E 010°18'0 0.0
2014-Jul-21 12:32N 43°33' E 010°18'0 0.0
2014-Jul-21 11:32N 43°33' E 010°18'0 0.0
2014-Jul-21 10:29N 43°33' E 010°18'0 0.0
2014-Jul-21 09:32N 43°33' E 010°18'0 0.0
2014-Jul-21 08:29N 43°33' E 010°18'0 0.0
2014-Jul-21 07:32N 43°33' E 010°18'0 0.0
2014-Jul-21 06:32N 43°33' E 010°18'0 0.0
2014-Jul-21 05:32N 43°33' E 010°18'0 0.0
2014-Jul-21 04:32N 43°33' E 010°18'0 0.0
2014-Jul-21 03:32N 43°33' E 010°18'0 0.0
2014-Jul-21 02:32N 43°33' E 010°18'0 0.0
2014-Jul-21 01:32N 43°33' E 010°18'0 0.0
2014-Jul-21 00:32N 43°33' E 010°18'0 0.0
2014-Jul-20 23:32N 43°33' E 010°18'0 0.0
2014-Jul-20 22:32N 43°33' E 010°18'0 0.0
2014-Jul-20 21:32N 43°33' E 010°18'0 0.0
2014-Jul-20 20:32N 43°33' E 010°18'0 0.0
2014-Jul-20 19:29N 43°33' E 010°18'0 0.0
2014-Jul-20 18:32N 43°33' E 010°18'0 0.0
2014-Jul-20 17:29N 43°33' E 010°18'0 0.0
2014-Jul-20 16:29N 43°33' E 010°18'0 0.0
2014-Jul-20 15:32N 43°33' E 010°18'0 0.0
2014-Jul-20 14:32N 43°33' E 010°18'0 0.0
2014-Jul-20 13:32N 43°33' E 010°18'0 0.0
2014-Jul-20 12:29N 43°33' E 010°18'0 0.0
2014-Jul-20 11:32N 43°33' E 010°18'0 0.0
2014-Jul-20 10:32N 43°33' E 010°18'0 0.0
2014-Jul-20 09:32N 43°33' E 010°18'0 0.0
2014-Jul-20 08:32N 43°33' E 010°18'0 0.0
2014-Jul-20 07:32N 43°33' E 010°18'0 0.0
2014-Jul-20 06:32N 43°33' E 010°18'0 0.0
2014-Jul-20 05:32N 43°33' E 010°18'0 0.0
2014-Jul-20 04:32N 43°33' E 010°18'0 0.0
2014-Jul-20 03:32N 43°33' E 010°18'0 0.0
2014-Jul-20 02:32N 43°33' E 010°18'0 0.0
2014-Jul-20 01:32N 43°33' E 010°18'0 0.0
2014-Jul-20 00:29N 43°33' E 010°18'0 0.0
2014-Jul-19 22:29N 43°33' E 010°18'0 0.0
2014-Jul-19 21:32N 43°33' E 010°18'0 0.0
2014-Jul-19 20:32N 43°33' E 010°18'0 0.0
2014-Jul-19 19:32N 43°33' E 010°18'0 0.0
2014-Jul-19 18:32N 43°33' E 010°18'0 0.0
2014-Jul-19 17:32N 43°33' E 010°18'0 0.0
2014-Jul-19 16:05N 43°33' E 010°18'0 0.0
2014-Jul-19 15:29N 43°33' E 010°18'0 0.0
2014-Jul-19 14:29N 43°33' E 010°18'0 0.0
2014-Jul-19 13:26N 43°33' E 010°18'0 0.0
2014-Jul-19 12:32N 43°33' E 010°18'0 0.0
2014-Jul-19 11:32N 43°33' E 010°18'0 0.0
2014-Jul-19 10:23N 43°33' E 010°18'0 0.0
2014-Jul-19 09:32N 43°33' E 010°18'0 0.0
2014-Jul-19 08:29N 43°33' E 010°18'0 0.0
2014-Jul-19 07:26N 43°33' E 010°18'0 0.0
2014-Jul-19 06:26N 43°33' E 010°18'0 0.0
2014-Jul-19 05:29N 43°33' E 010°18'0 0.0
2014-Jul-19 04:32N 43°33' E 010°18'0 0.0
2014-Jul-19 03:32N 43°33' E 010°18'0 0.0
2014-Jul-19 02:29N 43°33' E 010°18'0 0.0
2014-Jul-19 01:32N 43°33' E 010°18'0 0.0
2014-Jul-19 00:32N 43°33' E 010°18'0 0.0
2014-Jul-18 23:29N 43°33' E 010°18'0 0.0
2014-Jul-18 22:32N 43°33' E 010°18'0 0.0
2014-Jul-18 21:32N 43°33' E 010°18'0 0.0
2014-Jul-18 20:32N 43°33' E 010°18'0 0.0
2014-Jul-18 19:32N 43°33' E 010°18'0 0.0
2014-Jul-18 18:32N 43°33' E 010°18'0 0.0
2014-Jul-18 17:26N 43°33' E 010°18'0 0.0
2014-Jul-18 16:29N 43°33' E 010°18'0 0.0
2014-Jul-18 15:32N 43°33' E 010°18'0 0.0
2014-Jul-18 14:32N 43°33' E 010°18'0 0.0
2014-Jul-18 13:32N 43°33' E 010°18'  
Track history (hours):
 
Tides and Currents Weather Stations Pressure Air Temp Water Temp Dewpoint Dewpoint Depression Visibility Wind Speed Wind Dir Waves Ship Positions

Meamina

Last reported at 2014-Jul-28 12:33 UTC. Time now 2014-Jul-29 08:45 UTC.
Position N 40°46' E 013°50'.

Length 60 m; draft 3.5 m.

MMSI: 235061022.

Date/timePositionNaut miles runAvg speedWind from/ knotsBaromVisibWave heightAir tempDewpointWater temp
2014-Jul-28 12:33N 40°46' E 013°50'3 2.5
2014-Jul-28 11:32N 40°45' E 013°53'0 0.0
2014-Jul-28 10:29N 40°45' E 013°53'0 0.0
2014-Jul-28 09:32N 40°45' E 013°53'0 0.0
2014-Jul-28 08:28N 40°45' E 013°53'0 0.0
2014-Jul-28 07:32N 40°45' E 013°53'0 0.0
2014-Jul-28 06:29N 40°45' E 013°53'0 0.0
2014-Jul-28 05:32N 40°45' E 013°53'0 0.0
2014-Jul-28 04:32N 40°45' E 013°53'0 0.0
2014-Jul-28 03:32N 40°45' E 013°53'0 0.0
2014-Jul-28 02:32N 40°45' E 013°53'0 0.0
2014-Jul-28 01:32N 40°45' E 013°53'0 0.0
2014-Jul-28 00:32N 40°45' E 013°53'0 0.0
2014-Jul-27 23:32N 40°45' E 013°53'0 0.0
2014-Jul-27 22:32N 40°45' E 013°53'0 0.0
2014-Jul-27 21:32N 40°45' E 013°53'0 0.0
2014-Jul-27 20:29N 40°45' E 013°53'0 0.0
2014-Jul-27 19:33N 40°45' E 013°53'0 0.0
2014-Jul-27 18:33N 40°45' E 013°53'0 0.0
2014-Jul-27 17:33N 40°45' E 013°53'2 1.7
2014-Jul-27 16:33N 40°45' E 013°56'1110.5
2014-Jul-27 15:33N 40°39' E 014°07'7 7.4
2014-Jul-27 14:33N 40°34' E 014°14'0 0.0
2014-Jul-27 13:33N 40°34' E 014°14'0 0.0
2014-Jul-27 12:33N 40°34' E 014°14'0 0.0
2014-Jul-27 11:33N 40°34' E 014°14'0 0.0
2014-Jul-27 10:33N 40°34' E 014°14'0 0.0
2014-Jul-27 09:33N 40°34' E 014°14'0 0.0
2014-Jul-27 08:33N 40°34' E 014°14'0 0.0
2014-Jul-27 07:33N 40°34' E 014°14'0 0.0
2014-Jul-27 06:33N 40°34' E 014°14'0 0.0
2014-Jul-27 05:33N 40°34' E 014°13'0 0.1
2014-Jul-27 04:33N 40°34' E 014°14'0 0.0
2014-Jul-27 03:33N 40°34' E 014°14'2 0.9
2014-Jul-27 01:30N 40°32' E 014°15'0 0.0
2014-Jul-26 17:09N 40°32' E 014°15'0 0.0
2014-Jul-26 16:20N 40°32' E 014°15'0 0.0
2014-Jul-26 15:31N 40°32' E 014°15'0 0.0
2014-Jul-26 14:27N 40°32' E 014°15'0 0.0
2014-Jul-26 13:33N 40°32' E 014°15'0 0.0
2014-Jul-26 12:33N 40°32' E 014°15'11 0.5
2014-Jul-25 14:28N 40°37' E 014°28'8 9.2
2014-Jul-25 13:33N 40°37' E 014°17'1212.5
2014-Jul-25 12:33N 40°50' E 014°14'  
2014-Jul-23 05:34N 40°46' E 014°10'1312.9
2014-Jul-23 04:34N 40°47' E 013°53'1514.3
2014-Jul-23 03:33N 40°54' E 013°36'16813.6
2014-Jul-22 15:13N 42°41' E 010°43'914.0
2014-Jul-22 14:33N 42°48' E 010°35'4611.5
2014-Jul-22 10:33N 43°32' E 010°16'1 1.4
2014-Jul-22 09:33N 43°32' E 010°18'0 0.0
2014-Jul-22 08:32N 43°32' E 010°18'0 0.0
2014-Jul-22 07:32N 43°32' E 010°18'0 0.0
2014-Jul-22 06:29N 43°32' E 010°18'0 0.0
2014-Jul-22 05:23N 43°33' E 010°18'0 0.0
2014-Jul-22 04:32N 43°32' E 010°18'0 0.0
2014-Jul-22 03:32N 43°33' E 010°18'0 0.0
2014-Jul-22 02:32N 43°33' E 010°18'0 0.0
2014-Jul-22 01:32N 43°33' E 010°18'0 0.0
2014-Jul-22 00:29N 43°33' E 010°18'0 0.0
2014-Jul-21 23:32N 43°32' E 010°18'0 0.0
2014-Jul-21 22:32N 43°32' E 010°18'0 0.0
2014-Jul-21 21:32N 43°33' E 010°18'0 0.0
2014-Jul-21 20:32N 43°33' E 010°18'0 0.0
2014-Jul-21 20:17N 43°33' E 010°18'0 0.0
2014-Jul-21 19:29N 43°33' E 010°18'0 0.0
2014-Jul-21 18:32N 43°33' E 010°18'0 0.0
2014-Jul-21 17:32N 43°32' E 010°18'0 0.0
2014-Jul-21 16:32N 43°32' E 010°18'0 0.0
2014-Jul-21 15:32N 43°33' E 010°18'0 0.0
2014-Jul-21 14:29N 43°33' E 010°18'0 0.0
2014-Jul-21 13:29N 43°33' E 010°18'0 0.0
2014-Jul-21 12:32N 43°33' E 010°18'0 0.0
2014-Jul-21 11:32N 43°33' E 010°18'0 0.0
2014-Jul-21 10:29N 43°33' E 010°18'0 0.0
2014-Jul-21 09:32N 43°33' E 010°18'0 0.0
2014-Jul-21 08:29N 43°33' E 010°18'0 0.0
2014-Jul-21 07:32N 43°33' E 010°18'0 0.0
2014-Jul-21 06:32N 43°33' E 010°18'0 0.0
2014-Jul-21 05:32N 43°33' E 010°18'0 0.0
2014-Jul-21 04:32N 43°33' E 010°18'0 0.0
2014-Jul-21 03:32N 43°33' E 010°18'0 0.0
2014-Jul-21 02:32N 43°33' E 010°18'0 0.0
2014-Jul-21 01:32N 43°33' E 010°18'0 0.0
2014-Jul-21 00:32N 43°33' E 010°18'0 0.0
2014-Jul-20 23:32N 43°33' E 010°18'0 0.0
2014-Jul-20 22:32N 43°33' E 010°18'0 0.0
2014-Jul-20 21:32N 43°33' E 010°18'0 0.0
2014-Jul-20 20:32N 43°33' E 010°18'0 0.0
2014-Jul-20 19:29N 43°33' E 010°18'0 0.0
2014-Jul-20 18:32N 43°33' E 010°18'0 0.0
2014-Jul-20 17:29N 43°33' E 010°18'0 0.0
2014-Jul-20 16:29N 43°33' E 010°18'0 0.0
2014-Jul-20 15:32N 43°33' E 010°18'0 0.0
2014-Jul-20 14:32N 43°33' E 010°18'0 0.0
2014-Jul-20 13:32N 43°33' E 010°18'0 0.0
2014-Jul-20 12:29N 43°33' E 010°18'0 0.0
2014-Jul-20 11:32N 43°33' E 010°18'0 0.0
2014-Jul-20 10:32N 43°33' E 010°18'0 0.0
2014-Jul-20 09:32N 43°33' E 010°18'0 0.0
2014-Jul-20 08:32N 43°33' E 010°18'0 0.0
2014-Jul-20 07:32N 43°33' E 010°18'0 0.0
2014-Jul-20 06:32N 43°33' E 010°18'0 0.0
2014-Jul-20 05:32N 43°33' E 010°18'0 0.0
2014-Jul-20 04:32N 43°33' E 010°18'0 0.0
2014-Jul-20 03:32N 43°33' E 010°18'0 0.0
2014-Jul-20 02:32N 43°33' E 010°18'0 0.0
2014-Jul-20 01:32N 43°33' E 010°18'0 0.0
2014-Jul-20 00:29N 43°33' E 010°18'0 0.0
2014-Jul-19 22:29N 43°33' E 010°18'0 0.0
2014-Jul-19 21:32N 43°33' E 010°18'0 0.0
2014-Jul-19 20:32N 43°33' E 010°18'0 0.0
2014-Jul-19 19:32N 43°33' E 010°18'0 0.0
2014-Jul-19 18:32N 43°33' E 010°18'0 0.0
2014-Jul-19 17:32N 43°33' E 010°18'0 0.0
2014-Jul-19 16:05N 43°33' E 010°18'0 0.0
2014-Jul-19 15:29N 43°33' E 010°18'0 0.0
2014-Jul-19 14:29N 43°33' E 010°18'0 0.0
2014-Jul-19 13:26N 43°33' E 010°18'0 0.0
2014-Jul-19 12:32N 43°33' E 010°18'0 0.0
2014-Jul-19 11:32N 43°33' E 010°18'0 0.0
2014-Jul-19 10:23N 43°33' E 010°18'0 0.0
2014-Jul-19 09:32N 43°33' E 010°18'0 0.0
2014-Jul-19 08:29N 43°33' E 010°18'0 0.0
2014-Jul-19 07:26N 43°33' E 010°18'0 0.0
2014-Jul-19 06:26N 43°33' E 010°18'0 0.0
2014-Jul-19 05:29N 43°33' E 010°18'0 0.0
2014-Jul-19 04:32N 43°33' E 010°18'0 0.0
2014-Jul-19 03:32N 43°33' E 010°18'0 0.0
2014-Jul-19 02:29N 43°33' E 010°18'0 0.0
2014-Jul-19 01:32N 43°33' E 010°18'0 0.0
2014-Jul-19 00:32N 43°33' E 010°18'0 0.0
2014-Jul-18 23:29N 43°33' E 010°18'0 0.0
2014-Jul-18 22:32N 43°33' E 010°18'0 0.0
2014-Jul-18 21:32N 43°33' E 010°18'0 0.0
2014-Jul-18 20:32N 43°33' E 010°18'0 0.0
2014-Jul-18 19:32N 43°33' E 010°18'0 0.0
2014-Jul-18 18:32N 43°33' E 010°18'0 0.0
2014-Jul-18 17:26N 43°33' E 010°18'0 0.0
2014-Jul-18 16:29N 43°33' E 010°18'0 0.0
2014-Jul-18 15:32N 43°33' E 010°18'0 0.0
2014-Jul-18 14:32N 43°33' E 010°18'0 0.0
2014-Jul-18 13:32N 43°33' E 010°18'  

Dump ship's entire track history